sensor_id;sensor_type;location;lat;lon;timestamp;pressure;altitude;pressure_sealevel;temperature;humidity
13765;BME280;6953;48.810;9.204;2022-12-18T00:01:47;99676.66;;;-8.71;100.00
13765;BME280;6953;48.810;9.204;2022-12-18T00:04:23;99999.38;;;-7.07;100.00
13765;BME280;6953;48.810;9.204;2022-12-18T00:06:49;99982.16;;;-7.13;100.00
13765;BME280;6953;48.810;9.204;2022-12-18T00:09:15;99981.22;;;-7.15;100.00
13765;BME280;6953;48.810;9.204;2022-12-18T00:11:41;99911.56;;;-7.60;100.00
13765;BME280;6953;48.810;9.204;2022-12-18T00:14:06;99977.22;;;-7.09;100.00
13765;BME280;6953;48.810;9.204;2022-12-18T00:16:32;99965.28;;;-7.10;100.00
13765;BME280;6953;48.810;9.204;2022-12-18T00:19:00;99696.59;;;-8.60;100.00
13765;BME280;6953;48.810;9.204;2022-12-18T00:21:27;99889.28;;;-7.43;100.00
13765;BME280;6953;48.810;9.204;2022-12-18T00:23:53;99931.25;;;-7.11;100.00
13765;BME280;6953;48.810;9.204;2022-12-18T00:26:22;99952.03;;;-7.00;100.00
13765;BME280;6953;48.810;9.204;2022-12-18T00:28:47;99734.13;;;-8.31;100.00
13765;BME280;6953;48.810;9.204;2022-12-18T00:31:18;99975.31;;;-6.91;100.00
13765;BME280;6953;48.810;9.204;2022-12-18T00:33:45;99987.69;;;-7.02;100.00
13765;BME280;6953;48.810;9.204;2022-12-18T00:36:13;99897.16;;;-7.37;100.00
13765;BME280;6953;48.810;9.204;2022-12-18T00:38:39;99678.03;;;-8.57;100.00
13765;BME280;6953;48.810;9.204;2022-12-18T00:41:05;100021.84;;;-6.75;100.00
13765;BME280;6953;48.810;9.204;2022-12-18T00:43:31;99982.69;;;-6.99;100.00
13765;BME280;6953;48.810;9.204;2022-12-18T00:45:56;99995.22;;;-6.58;100.00
13765;BME280;6953;48.810;9.204;2022-12-18T00:48:22;99998.06;;;-6.49;100.00
13765;BME280;6953;48.810;9.204;2022-12-18T00:50:48;100039.78;;;-6.48;100.00
13765;BME280;6953;48.810;9.204;2022-12-18T00:53:14;99985.72;;;-6.62;100.00
13765;BME280;6953;48.810;9.204;2022-12-18T00:55:41;99610.59;;;-8.70;100.00
13765;BME280;6953;48.810;9.204;2022-12-18T00:58:07;99980.03;;;-6.55;100.00
13765;BME280;6953;48.810;9.204;2022-12-18T01:00:32;99821.56;;;-7.37;100.00
13765;BME280;6953;48.810;9.204;2022-12-18T01:02:58;99898.13;;;-6.87;100.00
13765;BME280;6953;48.810;9.204;2022-12-18T01:05:24;100013.88;;;-6.35;100.00
13765;BME280;6953;48.810;9.204;2022-12-18T01:07:49;99749.25;;;-7.65;100.00
13765;BME280;6953;48.810;9.204;2022-12-18T01:10:15;99659.19;;;-8.17;100.00
13765;BME280;6953;48.810;9.204;2022-12-18T01:12:40;99935.72;;;-6.57;100.00
13765;BME280;6953;48.810;9.204;2022-12-18T01:15:13;99972.53;;;-6.25;100.00
13765;BME280;6953;48.810;9.204;2022-12-18T01:17:39;99981.00;;;-6.26;100.00
13765;BME280;6953;48.810;9.204;2022-12-18T01:20:05;100000.06;;;-6.40;100.00
13765;BME280;6953;48.810;9.204;2022-12-18T01:22:30;99983.34;;;-6.32;100.00
13765;BME280;6953;48.810;9.204;2022-12-18T01:24:55;99900.66;;;-6.87;100.00
13765;BME280;6953;48.810;9.204;2022-12-18T01:27:21;99992.69;;;-6.33;100.00
13765;BME280;6953;48.810;9.204;2022-12-18T01:29:46;100024.28;;;-6.29;100.00
13765;BME280;6953;48.810;9.204;2022-12-18T01:32:11;99996.16;;;-6.31;100.00
13765;BME280;6953;48.810;9.204;2022-12-18T01:34:37;99785.28;;;-7.55;100.00
13765;BME280;6953;48.810;9.204;2022-12-18T01:37:04;99992.78;;;-6.30;100.00
13765;BME280;6953;48.810;9.204;2022-12-18T01:39:30;99884.34;;;-6.92;100.00
13765;BME280;6953;48.810;9.204;2022-12-18T01:41:57;99994.34;;;-6.35;100.00
13765;BME280;6953;48.810;9.204;2022-12-18T01:49:57;100005.47;;;-6.33;100.00
13765;BME280;6953;48.810;9.204;2022-12-18T01:52:26;100006.44;;;-6.29;100.00
13765;BME280;6953;48.810;9.204;2022-12-18T01:54:54;100037.97;;;-6.27;100.00
13765;BME280;6953;48.810;9.204;2022-12-18T01:57:20;99986.56;;;-6.38;100.00
13765;BME280;6953;48.810;9.204;2022-12-18T01:59:49;99985.13;;;-6.30;100.00
13765;BME280;6953;48.810;9.204;2022-12-18T02:02:16;99940.84;;;-6.57;100.00
13765;BME280;6953;48.810;9.204;2022-12-18T02:04:42;99999.06;;;-6.20;100.00
13765;BME280;6953;48.810;9.204;2022-12-18T02:10:06;99665.06;;;-7.93;100.00
13765;BME280;6953;48.810;9.204;2022-12-18T02:12:45;99986.16;;;-6.00;100.00
13765;BME280;6953;48.810;9.204;2022-12-18T02:17:47;99849.38;;;-6.70;100.00
13765;BME280;6953;48.810;9.204;2022-12-18T02:28:00;99999.03;;;-5.69;100.00
13765;BME280;6953;48.810;9.204;2022-12-18T02:30:29;99993.97;;;-5.68;100.00
13765;BME280;6953;48.810;9.204;2022-12-18T02:32:57;99997.47;;;-5.66;100.00
13765;BME280;6953;48.810;9.204;2022-12-18T02:35:26;99994.13;;;-5.63;100.00
13765;BME280;6953;48.810;9.204;2022-12-18T02:37:53;100000.81;;;-5.67;100.00
13765;BME280;6953;48.810;9.204;2022-12-18T02:40:19;99931.63;;;-6.01;100.00
13765;BME280;6953;48.810;9.204;2022-12-18T02:42:46;100010.94;;;-5.70;100.00
13765;BME280;6953;48.810;9.204;2022-12-18T02:45:12;99905.19;;;-6.29;100.00
13765;BME280;6953;48.810;9.204;2022-12-18T02:47:39;99911.28;;;-6.25;100.00
13765;BME280;6953;48.810;9.204;2022-12-18T02:50:34;100004.94;;;-5.70;100.00
13765;BME280;6953;48.810;9.204;2022-12-18T02:58:37;100019.22;;;-5.78;100.00
13765;BME280;6953;48.810;9.204;2022-12-18T03:04:16;100015.00;;;-5.76;100.00
13765;BME280;6953;48.810;9.204;2022-12-18T03:06:49;99691.75;;;-7.59;100.00
13765;BME280;6953;48.810;9.204;2022-12-18T03:09:32;100049.88;;;-5.77;100.00
13765;BME280;6953;48.810;9.204;2022-12-18T03:12:06;99972.50;;;-6.01;100.00
13765;BME280;6953;48.810;9.204;2022-12-18T03:15:27;100016.56;;;-5.81;100.00
13765;BME280;6953;48.810;9.204;2022-12-18T03:17:59;100009.72;;;-5.82;100.00
13765;BME280;6953;48.810;9.204;2022-12-18T03:20:29;100029.09;;;-5.89;100.00
13765;BME280;6953;48.810;9.204;2022-12-18T03:23:00;99683.13;;;-7.87;100.00
13765;BME280;6953;48.810;9.204;2022-12-18T03:25:30;99803.00;;;-7.58;100.00
13765;BME280;6953;48.810;9.204;2022-12-18T03:28:00;99924.75;;;-6.54;100.00
13765;BME280;6953;48.810;9.204;2022-12-18T03:30:29;99929.03;;;-6.53;100.00
13765;BME280;6953;48.810;9.204;2022-12-18T03:33:00;99706.94;;;-7.85;100.00
13765;BME280;6953;48.810;9.204;2022-12-18T03:35:31;99987.66;;;-6.30;100.00
13765;BME280;6953;48.810;9.204;2022-12-18T03:37:58;100044.66;;;-6.06;100.00
13765;BME280;6953;48.810;9.204;2022-12-18T03:40:29;99968.44;;;-6.45;100.00
13765;BME280;6953;48.810;9.204;2022-12-18T03:43:08;99796.69;;;-7.44;100.00
13765;BME280;6953;48.810;9.204;2022-12-18T03:45:38;100026.78;;;-6.06;100.00
13765;BME280;6953;48.810;9.204;2022-12-18T03:48:17;99920.72;;;-6.73;100.00
13765;BME280;6953;48.810;9.204;2022-12-18T03:50:52;99708.84;;;-8.03;100.00
13765;BME280;6953;48.810;9.204;2022-12-18T03:53:32;100034.72;;;-6.23;100.00
13765;BME280;6953;48.810;9.204;2022-12-18T03:56:01;100033.84;;;-6.24;100.00
13765;BME280;6953;48.810;9.204;2022-12-18T03:58:28;99840.09;;;-7.41;100.00
13765;BME280;6953;48.810;9.204;2022-12-18T04:00:59;99954.59;;;-6.77;100.00
13765;BME280;6953;48.810;9.204;2022-12-18T04:03:26;100004.91;;;-6.48;100.00
13765;BME280;6953;48.810;9.204;2022-12-18T04:05:54;100012.56;;;-6.48;100.00
13765;BME280;6953;48.810;9.204;2022-12-18T04:08:21;100035.88;;;-6.39;100.00
13765;BME280;6953;48.810;9.204;2022-12-18T04:10:47;100034.06;;;-6.41;100.00
13765;BME280;6953;48.810;9.204;2022-12-18T04:13:21;100067.09;;;-6.46;100.00
13765;BME280;6953;48.810;9.204;2022-12-18T04:15:47;99982.94;;;-6.68;100.00
13765;BME280;6953;48.810;9.204;2022-12-18T04:18:12;100034.53;;;-6.53;100.00
13765;BME280;6953;48.810;9.204;2022-12-18T04:20:38;100027.63;;;-6.55;100.00
13765;BME280;6953;48.810;9.204;2022-12-18T04:23:03;100041.25;;;-6.55;100.00
13765;BME280;6953;48.810;9.204;2022-12-18T04:25:28;100051.41;;;-6.56;100.00
13765;BME280;6953;48.810;9.204;2022-12-18T04:27:54;99702.41;;;-8.40;100.00
13765;BME280;6953;48.810;9.204;2022-12-18T04:30:19;100031.06;;;-6.55;100.00
13765;BME280;6953;48.810;9.204;2022-12-18T04:32:44;99931.97;;;-7.14;100.00
13765;BME280;6953;48.810;9.204;2022-12-18T04:35:10;100042.00;;;-6.57;100.00
13765;BME280;6953;48.810;9.204;2022-12-18T04:37:37;100048.81;;;-6.58;100.00
13765;BME280;6953;48.810;9.204;2022-12-18T04:40:03;99960.47;;;-7.01;100.00
13765;BME280;6953;48.810;9.204;2022-12-18T04:42:28;100080.50;;;-6.51;100.00
13765;BME280;6953;48.810;9.204;2022-12-18T04:44:53;100039.78;;;-6.48;100.00
13765;BME280;6953;48.810;9.204;2022-12-18T04:47:19;100018.34;;;-6.53;100.00
13765;BME280;6953;48.810;9.204;2022-12-18T04:49:44;100026.38;;;-6.43;100.00
13765;BME280;6953;48.810;9.204;2022-12-18T04:52:09;100067.19;;;-6.43;100.00
13765;BME280;6953;48.810;9.204;2022-12-18T04:54:35;100021.31;;;-6.41;100.00
13765;BME280;6953;48.810;9.204;2022-12-18T04:57:00;99696.09;;;-8.28;100.00
13765;BME280;6953;48.810;9.204;2022-12-18T04:59:26;100016.84;;;-6.47;100.00
13765;BME280;6953;48.810;9.204;2022-12-18T05:01:51;100024.50;;;-6.47;100.00
13765;BME280;6953;48.810;9.204;2022-12-18T05:04:16;99788.38;;;-7.87;100.00
13765;BME280;6953;48.810;9.204;2022-12-18T05:06:42;99700.47;;;-8.47;100.00
13765;BME280;6953;48.810;9.204;2022-12-18T05:09:07;99971.03;;;-6.92;100.00
13765;BME280;6953;48.810;9.204;2022-12-18T05:11:32;100066.38;;;-6.65;100.00
13765;BME280;6953;48.810;9.204;2022-12-18T05:13:58;100016.13;;;-6.68;100.00
13765;BME280;6953;48.810;9.204;2022-12-18T05:16:23;100003.75;;;-6.81;100.00
13765;BME280;6953;48.810;9.204;2022-12-18T05:18:49;100023.56;;;-6.74;100.00
13765;BME280;6953;48.810;9.204;2022-12-18T05:21:14;100019.97;;;-6.79;100.00
13765;BME280;6953;48.810;9.204;2022-12-18T05:23:40;100068.28;;;-6.83;100.00
13765;BME280;6953;48.810;9.204;2022-12-18T05:26:06;100083.50;;;-6.85;100.00
13765;BME280;6953;48.810;9.204;2022-12-18T05:28:34;100010.06;;;-7.16;100.00
13765;BME280;6953;48.810;9.204;2022-12-18T05:31:01;100052.75;;;-6.89;100.00
13765;BME280;6953;48.810;9.204;2022-12-18T05:33:30;99718.66;;;-8.81;100.00
13765;BME280;6953;48.810;9.204;2022-12-18T05:35:58;100016.91;;;-7.15;100.00
13765;BME280;6953;48.810;9.204;2022-12-18T05:38:25;100055.59;;;-7.04;100.00
13765;BME280;6953;48.810;9.204;2022-12-18T05:40:51;99882.53;;;-8.09;100.00
13765;BME280;6953;48.810;9.204;2022-12-18T05:43:18;99993.44;;;-7.51;100.00
13765;BME280;6953;48.810;9.204;2022-12-18T05:45:44;100058.66;;;-7.12;100.00
13765;BME280;6953;48.810;9.204;2022-12-18T05:48:09;99727.19;;;-9.01;100.00
13765;BME280;6953;48.810;9.204;2022-12-18T05:50:39;99961.38;;;-7.68;100.00
13765;BME280;6953;48.810;9.204;2022-12-18T05:53:05;99814.91;;;-8.68;100.00
13765;BME280;6953;48.810;9.204;2022-12-18T05:55:38;99717.53;;;-9.09;100.00
13765;BME280;6953;48.810;9.204;2022-12-18T05:58:05;99800.88;;;-8.58;100.00
13765;BME280;6953;48.810;9.204;2022-12-18T06:00:32;99712.06;;;-9.18;100.00
13765;BME280;6953;48.810;9.204;2022-12-18T06:02:58;99954.13;;;-7.79;100.00
13765;BME280;6953;48.810;9.204;2022-12-18T06:05:24;100046.84;;;-7.32;100.00
13765;BME280;6953;48.810;9.204;2022-12-18T06:07:50;99959.66;;;-7.89;100.00
13765;BME280;6953;48.810;9.204;2022-12-18T06:10:16;100003.84;;;-7.67;100.00
13765;BME280;6953;48.810;9.204;2022-12-18T06:12:41;99694.72;;;-9.48;100.00
13765;BME280;6953;48.810;9.204;2022-12-18T06:15:07;99728.34;;;-9.33;100.00
13765;BME280;6953;48.810;9.204;2022-12-18T06:17:33;100039.00;;;-7.58;100.00
13765;BME280;6953;48.810;9.204;2022-12-18T06:19:59;99895.22;;;-8.52;100.00
13765;BME280;6953;48.810;9.204;2022-12-18T06:22:24;100062.84;;;-7.56;100.00
13765;BME280;6953;48.810;9.204;2022-12-18T06:24:50;100059.50;;;-7.55;100.00
13765;BME280;6953;48.810;9.204;2022-12-18T06:27:15;100023.50;;;-7.85;100.00
13765;BME280;6953;48.810;9.204;2022-12-18T06:29:40;99920.28;;;-8.41;100.00
13765;BME280;6953;48.810;9.204;2022-12-18T06:32:06;100069.44;;;-7.61;100.00
13765;BME280;6953;48.810;9.204;2022-12-18T06:34:32;100032.25;;;-7.78;100.00
13765;BME280;6953;48.810;9.204;2022-12-18T06:36:58;100079.75;;;-7.58;100.00
13765;BME280;6953;48.810;9.204;2022-12-18T06:39:23;100113.53;;;-7.62;100.00
13765;BME280;6953;48.810;9.204;2022-12-18T06:41:49;100073.50;;;-7.87;100.00
13765;BME280;6953;48.810;9.204;2022-12-18T06:44:14;99982.94;;;-8.22;100.00
13765;BME280;6953;48.810;9.204;2022-12-18T06:46:39;99737.13;;;-9.66;100.00
13765;BME280;6953;48.810;9.204;2022-12-18T06:49:05;100071.97;;;-7.82;100.00
13765;BME280;6953;48.810;9.204;2022-12-18T06:51:30;100073.72;;;-7.81;100.00
13765;BME280;6953;48.810;9.204;2022-12-18T06:53:55;100072.19;;;-7.77;100.00
13765;BME280;6953;48.810;9.204;2022-12-18T06:56:21;99743.97;;;-9.64;100.00
13765;BME280;6953;48.810;9.204;2022-12-18T06:58:47;100069.63;;;-7.77;100.00
13765;BME280;6953;48.810;9.204;2022-12-18T07:01:13;100055.53;;;-7.90;100.00
13765;BME280;6953;48.810;9.204;2022-12-18T07:03:39;100121.38;;;-7.78;100.00
13765;BME280;6953;48.810;9.204;2022-12-18T07:06:05;100060.50;;;-7.93;100.00
13765;BME280;6953;48.810;9.204;2022-12-18T07:08:31;99745.94;;;-9.77;100.00
13765;BME280;6953;48.810;9.204;2022-12-18T07:10:57;100096.91;;;-7.75;100.00
13765;BME280;6953;48.810;9.204;2022-12-18T07:13:23;100070.56;;;-7.96;100.00
13765;BME280;6953;48.810;9.204;2022-12-18T07:15:48;99945.69;;;-8.61;100.00
13765;BME280;6953;48.810;9.204;2022-12-18T07:18:13;100099.69;;;-7.69;100.00
13765;BME280;6953;48.810;9.204;2022-12-18T07:20:39;100101.44;;;-7.68;100.00
13765;BME280;6953;48.810;9.204;2022-12-18T07:23:05;100104.97;;;-7.64;100.00
13765;BME280;6953;48.810;9.204;2022-12-18T07:25:34;100098.25;;;-7.62;100.00
13765;BME280;6953;48.810;9.204;2022-12-18T07:27:59;100104.41;;;-7.57;100.00
13765;BME280;6953;48.810;9.204;2022-12-18T07:30:25;100109.69;;;-7.53;100.00
13765;BME280;6953;48.810;9.204;2022-12-18T07:32:50;100101.25;;;-7.52;100.00
13765;BME280;6953;48.810;9.204;2022-12-18T07:35:15;99821.28;;;-9.18;100.00
13765;BME280;6953;48.810;9.204;2022-12-18T07:37:41;100120.13;;;-7.47;100.00
13765;BME280;6953;48.810;9.204;2022-12-18T07:40:07;100088.34;;;-7.56;100.00
13765;BME280;6953;48.810;9.204;2022-12-18T07:42:33;99789.38;;;-9.32;100.00
13765;BME280;6953;48.810;9.204;2022-12-18T07:45:01;100120.56;;;-7.36;100.00
13765;BME280;6953;48.810;9.204;2022-12-18T07:47:28;100153.78;;;-7.33;100.00
13765;BME280;6953;48.810;9.204;2022-12-18T07:49:54;100119.84;;;-7.32;100.00
13765;BME280;6953;48.810;9.204;2022-12-18T07:52:20;100122.72;;;-7.25;100.00
13765;BME280;6953;48.810;9.204;2022-12-18T07:54:45;100097.84;;;-7.30;100.00
13765;BME280;6953;48.810;9.204;2022-12-18T07:57:12;99777.59;;;-9.10;100.00
13765;BME280;6953;48.810;9.204;2022-12-18T07:59:37;100126.00;;;-7.07;100.00
13765;BME280;6953;48.810;9.204;2022-12-18T08:02:03;100170.44;;;-7.01;100.00
13765;BME280;6953;48.810;9.204;2022-12-18T08:04:28;99786.34;;;-8.83;100.00
13765;BME280;6953;48.810;9.204;2022-12-18T08:06:54;100143.25;;;-6.78;100.00
13765;BME280;6953;48.810;9.204;2022-12-18T08:09:19;100121.63;;;-6.66;100.00
13765;BME280;6953;48.810;9.204;2022-12-18T08:11:44;100117.59;;;-6.59;100.00
13765;BME280;6953;48.810;9.204;2022-12-18T08:14:10;100180.00;;;-6.51;100.00
13765;BME280;6953;48.810;9.204;2022-12-18T08:16:35;100099.81;;;-6.58;99.98
13765;BME280;6953;48.810;9.204;2022-12-18T08:19:01;99982.75;;;-7.19;99.86
13765;BME280;6953;48.810;9.204;2022-12-18T08:21:30;99795.53;;;-8.22;98.92
13765;BME280;6953;48.810;9.204;2022-12-18T08:23:57;100114.47;;;-6.29;99.24
13765;BME280;6953;48.810;9.204;2022-12-18T08:26:25;100114.72;;;-6.23;98.79
13765;BME280;6953;48.810;9.204;2022-12-18T08:28:51;99888.03;;;-7.54;98.65
13765;BME280;6953;48.810;9.204;2022-12-18T08:31:18;100057.53;;;-6.75;98.18
13765;BME280;6953;48.810;9.204;2022-12-18T08:33:43;100164.19;;;-6.19;97.92
13765;BME280;6953;48.810;9.204;2022-12-18T08:36:09;99938.16;;;-7.08;97.47
13765;BME280;6953;48.810;9.204;2022-12-18T08:38:35;100124.88;;;-6.01;97.72
13765;BME280;6953;48.810;9.204;2022-12-18T08:41:08;99810.94;;;-7.72;96.50
13765;BME280;6953;48.810;9.204;2022-12-18T08:43:34;100124.63;;;-5.84;96.78
13765;BME280;6953;48.810;9.204;2022-12-18T08:46:21;99794.50;;;-7.58;95.97
13765;BME280;6953;48.810;9.204;2022-12-18T08:48:48;100122.81;;;-5.61;95.66
13765;BME280;6953;48.810;9.204;2022-12-18T08:51:16;100128.38;;;-5.48;95.18
13765;BME280;6953;48.810;9.204;2022-12-18T08:53:42;100023.78;;;-5.95;95.26
13765;BME280;6953;48.810;9.204;2022-12-18T08:56:07;99808.66;;;-7.18;95.30
13765;BME280;6953;48.810;9.204;2022-12-18T08:58:33;100117.78;;;-5.07;95.71
13765;BME280;6953;48.810;9.204;2022-12-18T09:01:07;100114.75;;;-4.94;95.02
13765;BME280;6953;48.810;9.204;2022-12-18T09:03:34;100098.81;;;-4.86;95.76
13765;BME280;6953;48.810;9.204;2022-12-18T09:05:59;100099.19;;;-4.74;95.28
13765;BME280;6953;48.810;9.204;2022-12-18T09:08:25;100078.88;;;-4.68;94.83
13765;BME280;6953;48.810;9.204;2022-12-18T09:10:50;100097.34;;;-4.50;94.58
13765;BME280;6953;48.810;9.204;2022-12-18T09:13:16;100075.19;;;-4.48;93.03
13765;BME280;6953;48.810;9.204;2022-12-18T09:15:44;100079.97;;;-4.30;93.36
13765;BME280;6953;48.810;9.204;2022-12-18T09:18:14;100075.31;;;-4.14;93.23
13765;BME280;6953;48.810;9.204;2022-12-18T09:20:40;100019.25;;;-4.34;91.59
13765;BME280;6953;48.810;9.204;2022-12-18T09:23:06;100077.72;;;-3.88;90.93
13765;BME280;6953;48.810;9.204;2022-12-18T09:25:32;99781.69;;;-4.46;96.07
13765;BME280;6953;48.810;9.204;2022-12-18T09:28:02;100074.69;;;-0.71;99.86
13765;BME280;6953;48.810;9.204;2022-12-18T09:30:28;99974.44;;;0.35;95.33
13765;BME280;6953;48.810;9.204;2022-12-18T09:32:54;99988.97;;;1.71;81.95
13765;BME280;6953;48.810;9.204;2022-12-18T09:35:19;100059.00;;;3.07;77.17
13765;BME280;6953;48.810;9.204;2022-12-18T09:37:45;99845.00;;;2.13;69.44
13765;BME280;6953;48.810;9.204;2022-12-18T09:40:14;100037.09;;;3.90;68.41
13765;BME280;6953;48.810;9.204;2022-12-18T09:42:45;99895.41;;;3.62;59.60
13765;BME280;6953;48.810;9.204;2022-12-18T09:45:14;99814.50;;;4.17;56.47
13765;BME280;6953;48.810;9.204;2022-12-18T09:47:42;100042.03;;;6.09;52.47
13765;BME280;6953;48.810;9.204;2022-12-18T09:50:37;100057.91;;;6.51;47.52
13765;BME280;6953;48.810;9.204;2022-12-18T09:53:07;100043.31;;;6.94;46.21
13765;BME280;6953;48.810;9.204;2022-12-18T09:55:40;100001.00;;;6.77;45.33
13765;BME280;6953;48.810;9.204;2022-12-18T10:00:41;100041.63;;;7.82;39.69
13765;BME280;6953;48.810;9.204;2022-12-18T10:03:11;99930.53;;;8.04;36.67
13765;BME280;6953;48.810;9.204;2022-12-18T10:05:45;100075.00;;;9.56;35.72
13765;BME280;6953;48.810;9.204;2022-12-18T10:11:20;99908.75;;;10.49;32.29
13765;BME280;6953;48.810;9.204;2022-12-18T10:13:55;100055.09;;;11.94;31.99
13765;BME280;6953;48.810;9.204;2022-12-18T10:19:42;100068.16;;;14.08;27.75
13765;BME280;6953;48.810;9.204;2022-12-18T10:25:26;100093.81;;;13.25;27.38
13765;BME280;6953;48.810;9.204;2022-12-18T10:27:58;100025.84;;;12.91;27.96
13765;BME280;6953;48.810;9.204;2022-12-18T10:30:25;99880.66;;;12.97;25.54
13765;BME280;6953;48.810;9.204;2022-12-18T10:32:51;100100.75;;;14.27;25.31
13765;BME280;6953;48.810;9.204;2022-12-18T10:35:26;100098.78;;;14.50;25.35
13765;BME280;6953;48.810;9.204;2022-12-18T10:40:26;100083.97;;;15.70;25.57
13765;BME280;6953;48.810;9.204;2022-12-18T10:43:12;100091.09;;;17.29;23.39
13765;BME280;6953;48.810;9.204;2022-12-18T10:45:38;100029.00;;;17.02;22.50
13765;BME280;6953;48.810;9.204;2022-12-18T10:48:04;100115.59;;;17.18;22.91
13765;BME280;6953;48.810;9.204;2022-12-18T10:50:47;100074.31;;;17.44;22.75
13765;BME280;6953;48.810;9.204;2022-12-18T10:53:18;100090.38;;;16.80;22.49
13765;BME280;6953;48.810;9.204;2022-12-18T10:55:45;99951.03;;;15.50;24.16
13765;BME280;6953;48.810;9.204;2022-12-18T11:01:13;100092.56;;;17.03;22.79
13765;BME280;6953;48.810;9.204;2022-12-18T11:03:45;100091.25;;;16.49;23.23
13765;BME280;6953;48.810;9.204;2022-12-18T11:06:16;100069.66;;;16.41;22.87
13765;BME280;6953;48.810;9.204;2022-12-18T11:08:43;100017.69;;;16.54;22.74
13765;BME280;6953;48.810;9.204;2022-12-18T11:11:20;100080.81;;;16.13;22.81
13765;BME280;6953;48.810;9.204;2022-12-18T11:16:25;100085.78;;;15.36;24.63
13765;BME280;6953;48.810;9.204;2022-12-18T11:18:51;100059.31;;;15.01;24.76
13765;BME280;6953;48.810;9.204;2022-12-18T11:21:16;100045.09;;;15.20;24.87
13765;BME280;6953;48.810;9.204;2022-12-18T11:23:52;100044.09;;;15.58;24.41
13765;BME280;6953;48.810;9.204;2022-12-18T11:26:18;99770.31;;;14.00;24.67
13765;BME280;6953;48.810;9.204;2022-12-18T11:28:46;100035.25;;;17.01;23.66
13765;BME280;6953;48.810;9.204;2022-12-18T11:33:44;100032.47;;;16.58;22.82
13765;BME280;6953;48.810;9.204;2022-12-18T11:36:12;99994.09;;;15.69;23.64
13765;BME280;6953;48.810;9.204;2022-12-18T11:38:42;99981.44;;;15.59;24.13
13765;BME280;6953;48.810;9.204;2022-12-18T11:43:50;100044.09;;;14.70;25.30
13765;BME280;6953;48.810;9.204;2022-12-18T11:46:33;100026.53;;;14.14;26.25
13765;BME280;6953;48.810;9.204;2022-12-18T11:49:24;100024.41;;;14.22;26.29
13765;BME280;6953;48.810;9.204;2022-12-18T11:51:53;100009.91;;;14.49;26.10
13765;BME280;6953;48.810;9.204;2022-12-18T11:54:21;100016.78;;;14.70;25.46
13765;BME280;6953;48.810;9.204;2022-12-18T11:56:55;99791.41;;;14.00;26.03
13765;BME280;6953;48.810;9.204;2022-12-18T12:04:56;100008.34;;;14.45;26.04
13765;BME280;6953;48.810;9.204;2022-12-18T12:07:43;99990.69;;;14.09;26.90
13765;BME280;6953;48.810;9.204;2022-12-18T12:10:32;99978.22;;;13.55;27.19
13765;BME280;6953;48.810;9.204;2022-12-18T12:15:54;99747.06;;;10.21;30.85
13765;BME280;6953;48.810;9.204;2022-12-18T12:21:51;99968.16;;;11.51;31.45
13765;BME280;6953;48.810;9.204;2022-12-18T12:35:22;99959.25;;;9.10;37.56
13765;BME280;6953;48.810;9.204;2022-12-18T12:40:27;99925.47;;;7.97;40.23
13765;BME280;6953;48.810;9.204;2022-12-18T12:42:58;99963.59;;;7.66;42.05
13765;BME280;6953;48.810;9.204;2022-12-18T12:48:43;99940.34;;;7.13;43.63
13765;BME280;6953;48.810;9.204;2022-12-18T12:53:48;99943.50;;;6.85;45.50
13765;BME280;6953;48.810;9.204;2022-12-18T12:56:15;99739.22;;;5.95;45.64
13765;BME280;6953;48.810;9.204;2022-12-18T13:01:51;99945.19;;;7.73;44.70
13765;BME280;6953;48.810;9.204;2022-12-18T13:18:04;99967.56;;;8.24;42.10
13765;BME280;6953;48.810;9.204;2022-12-18T13:20:35;99931.72;;;7.91;43.24
13765;BME280;6953;48.810;9.204;2022-12-18T13:25:44;99962.94;;;7.56;45.28
13765;BME280;6953;48.810;9.204;2022-12-18T13:28:14;99965.63;;;7.94;45.15
13765;BME280;6953;48.810;9.204;2022-12-18T13:35:42;99943.47;;;7.31;46.39
13765;BME280;6953;48.810;9.204;2022-12-18T13:40:58;99959.09;;;6.88;48.24
13765;BME280;6953;48.810;9.204;2022-12-18T13:43:31;99817.16;;;6.07;48.53
13765;BME280;6953;48.810;9.204;2022-12-18T13:46:19;99935.03;;;6.72;48.98
13765;BME280;6953;48.810;9.204;2022-12-18T13:48:55;99931.28;;;6.38;50.18
13765;BME280;6953;48.810;9.204;2022-12-18T13:51:22;99938.75;;;6.04;51.37
13765;BME280;6953;48.810;9.204;2022-12-18T13:53:50;99848.59;;;5.36;52.51
13765;BME280;6953;48.810;9.204;2022-12-18T13:56:18;99874.66;;;5.33;52.17
13765;BME280;6953;48.810;9.204;2022-12-18T13:58:45;99925.66;;;5.46;53.74
13765;BME280;6953;48.810;9.204;2022-12-18T14:01:24;99939.69;;;5.35;54.27
13765;BME280;6953;48.810;9.204;2022-12-18T14:03:49;99728.50;;;3.62;54.64
13765;BME280;6953;48.810;9.204;2022-12-18T14:06:16;99679.88;;;2.83;56.33
13765;BME280;6953;48.810;9.204;2022-12-18T14:08:42;99730.88;;;2.73;58.27
13765;BME280;6953;48.810;9.204;2022-12-18T14:11:19;99887.81;;;3.31;59.67
13765;BME280;6953;48.810;9.204;2022-12-18T14:13:46;99971.59;;;3.42;61.07
13765;BME280;6953;48.810;9.204;2022-12-18T14:16:14;99886.28;;;2.76;62.27
13765;BME280;6953;48.810;9.204;2022-12-18T14:18:57;99956.19;;;2.96;62.87
13765;BME280;6953;48.810;9.204;2022-12-18T14:21:28;99950.16;;;2.88;63.76
13765;BME280;6953;48.810;9.204;2022-12-18T14:24:16;99963.19;;;2.74;65.05
13765;BME280;6953;48.810;9.204;2022-12-18T14:26:43;99985.63;;;2.51;65.63
13765;BME280;6953;48.810;9.204;2022-12-18T14:29:21;99967.50;;;2.35;67.22
13765;BME280;6953;48.810;9.204;2022-12-18T14:32:13;99888.97;;;1.75;68.01
13765;BME280;6953;48.810;9.204;2022-12-18T14:34:41;99895.81;;;1.55;69.40
13765;BME280;6953;48.810;9.204;2022-12-18T14:37:10;99676.75;;;0.15;70.38
13765;BME280;6953;48.810;9.204;2022-12-18T14:39:35;99971.72;;;1.67;71.11
13765;BME280;6953;48.810;9.204;2022-12-18T14:42:01;99747.31;;;0.20;71.78
13765;BME280;6953;48.810;9.204;2022-12-18T14:44:26;99983.66;;;1.28;72.53
13765;BME280;6953;48.810;9.204;2022-12-18T14:46:52;99975.91;;;1.29;73.74
13765;BME280;6953;48.810;9.204;2022-12-18T14:52:04;99977.50;;;1.01;74.98
13765;BME280;6953;48.810;9.204;2022-12-18T14:54:31;99968.81;;;0.88;75.74
13765;BME280;6953;48.810;9.204;2022-12-18T14:57:05;99981.69;;;0.85;76.77
13765;BME280;6953;48.810;9.204;2022-12-18T14:59:31;99974.75;;;0.74;77.48
13765;BME280;6953;48.810;9.204;2022-12-18T15:15:03;99949.22;;;0.01;82.35
13765;BME280;6953;48.810;9.204;2022-12-18T15:17:28;99915.41;;;-0.29;82.68